createdAt,value
2018-01-13T00:00:27.021Z,8.27
2018-01-13T00:02:55.366Z,8.90
2018-01-13T00:05:23.810Z,8.90
2018-01-13T00:07:51.338Z,9.27
2018-01-13T00:10:19.922Z,8.20
2018-01-13T00:12:47.509Z,8.50
2018-01-13T00:15:16.913Z,8.73
2018-01-13T00:17:46.988Z,9.10
2018-01-13T00:20:17.586Z,9.67
2018-01-13T00:22:47.317Z,8.87
2018-01-13T00:25:14.945Z,9.40
2018-01-13T00:27:43.422Z,9.00
2018-01-13T00:30:11.765Z,9.67
2018-01-13T00:32:40.707Z,7.70
2018-01-13T00:35:08.291Z,8.57
2018-01-13T00:37:37.565Z,8.90
2018-01-13T00:40:11.715Z,8.93
2018-01-13T00:42:39.259Z,9.97
2018-01-13T00:45:06.846Z,9.90
2018-01-13T00:47:34.435Z,10.63
2018-01-13T00:50:02.599Z,8.43
2018-01-13T00:52:30.155Z,9.17
2018-01-13T00:54:58.533Z,9.60
2018-01-13T00:57:26.900Z,9.47
2018-01-13T00:59:56.190Z,9.93
2018-01-13T01:02:23.749Z,8.83
2018-01-13T01:04:52.159Z,10.00
2018-01-13T01:07:20.472Z,9.60
2018-01-13T01:09:48.874Z,9.40
2018-01-13T01:12:18.220Z,8.60
2018-01-13T01:14:47.362Z,10.83
2018-01-13T01:17:14.901Z,10.23
2018-01-13T01:19:43.421Z,9.33
2018-01-13T01:22:11.824Z,8.07
2018-01-13T01:24:40.458Z,9.50
2018-01-13T01:27:08.577Z,8.97
2018-01-13T01:29:37.834Z,10.57
2018-01-13T01:32:07.123Z,9.83
2018-01-13T01:34:35.516Z,9.00
2018-01-13T01:37:03.948Z,9.47
2018-01-13T01:39:38.947Z,10.53
2018-01-13T01:42:08.218Z,10.63
2018-01-13T01:44:37.376Z,11.20
2018-01-13T01:47:07.772Z,10.43
2018-01-13T01:49:37.652Z,10.37
2018-01-13T01:52:05.220Z,8.63
2018-01-13T01:54:34.832Z,10.00
2018-01-13T01:57:02.385Z,8.93
2018-01-13T01:59:34.910Z,9.60
2018-01-13T02:02:03.028Z,10.57
2018-01-13T02:04:31.948Z,9.63
2018-01-13T02:07:00.260Z,10.93
2018-01-13T02:09:28.799Z,9.00
2018-01-13T02:11:56.430Z,10.67
2018-01-13T02:14:24.314Z,9.60
2018-01-13T02:16:51.853Z,10.23
2018-01-13T02:19:19.459Z,10.90
2018-01-13T02:21:48.456Z,9.50
2018-01-13T02:24:16.043Z,11.07
2018-01-13T02:26:46.439Z,9.83
2018-01-13T02:29:15.221Z,10.60
2018-01-13T02:31:43.458Z,10.17
2018-01-13T02:34:11.043Z,9.40
2018-01-13T02:36:38.620Z,10.63
2018-01-13T02:39:08.677Z,9.57
2018-01-13T02:41:36.899Z,10.90
2018-01-13T02:44:06.546Z,10.93
2018-01-13T02:46:34.118Z,10.93
2018-01-13T02:49:01.663Z,10.43
2018-01-13T02:51:30.853Z,9.70
2018-01-13T02:54:04.924Z,9.97
2018-01-13T02:56:32.514Z,8.60
2018-01-13T02:59:00.558Z,9.70
2018-01-13T03:01:28.932Z,10.47
2018-01-13T03:03:58.198Z,10.43
2018-01-13T03:06:25.795Z,10.27
2018-01-13T03:08:54.394Z,10.33
2018-01-13T03:11:22.916Z,9.20
2018-01-13T03:13:51.231Z,9.37
2018-01-13T03:16:19.606Z,9.97
2018-01-13T03:18:48.956Z,10.13
2018-01-13T03:21:16.497Z,10.17
2018-01-13T03:23:45.328Z,9.20
2018-01-13T03:26:13.807Z,8.57
2018-01-13T03:28:44.211Z,9.40
2018-01-13T03:31:11.867Z,9.00
2018-01-13T03:33:39.450Z,8.67
2018-01-13T03:36:15.031Z,9.60
2018-01-13T03:38:51.989Z,8.80
2018-01-13T03:41:20.423Z,10.00
2018-01-13T03:43:50.112Z,10.40
2018-01-13T03:46:18.678Z,10.30
2018-01-13T03:48:47.035Z,10.33
2018-01-13T03:51:16.075Z,9.43
2018-01-13T03:53:43.670Z,8.60
2018-01-13T03:56:11.210Z,9.27
2018-01-13T03:58:41.306Z,10.77
2018-01-13T04:01:09.577Z,9.17
2018-01-13T04:03:38.013Z,10.10
2018-01-13T04:06:07.259Z,10.27
2018-01-13T04:08:34.851Z,9.57
2018-01-13T04:11:02.399Z,10.27
2018-01-13T04:13:30.561Z,10.67
2018-01-13T04:15:58.103Z,10.40
2018-01-13T04:18:26.310Z,10.67
2018-01-13T04:20:56.425Z,11.13
2018-01-13T04:23:24.042Z,10.77
2018-01-13T04:25:51.618Z,10.90
2018-01-13T04:28:20.363Z,10.30
2018-01-13T04:30:48.659Z,11.27
2018-01-13T04:33:19.909Z,11.03
2018-01-13T04:35:48.351Z,10.53
2018-01-13T04:38:16.701Z,10.70
2018-01-13T04:40:44.274Z,11.00
2018-01-13T04:43:12.631Z,11.00
2018-01-13T04:45:41.203Z,11.20
2018-01-13T04:48:08.787Z,11.30
2018-01-13T04:50:36.331Z,10.80
2018-01-13T04:53:03.906Z,10.30
2018-01-13T04:55:32.015Z,10.20
2018-01-13T04:58:01.036Z,11.27
2018-01-13T05:00:28.594Z,11.10
2018-01-13T05:02:58.670Z,11.07
2018-01-13T05:05:26.225Z,10.70
2018-01-13T05:07:54.753Z,10.63
2018-01-13T05:10:25.744Z,11.93
2018-01-13T05:12:56.166Z,10.83
2018-01-13T05:15:23.713Z,10.70
2018-01-13T05:17:54.608Z,10.60
2018-01-13T05:20:23.731Z,10.97
2018-01-13T05:22:51.323Z,12.10
2018-01-13T05:25:19.776Z,12.07
2018-01-13T05:27:49.705Z,12.10
2018-01-13T05:30:19.264Z,11.43
2018-01-13T05:32:47.710Z,12.67
2018-01-13T05:35:16.373Z,11.47
2018-01-13T05:37:43.963Z,11.60
2018-01-13T05:40:11.518Z,10.53
2018-01-13T05:42:40.911Z,12.20
2018-01-13T05:45:09.886Z,12.20
2018-01-13T05:47:38.260Z,11.40
2018-01-13T05:50:05.807Z,11.03
2018-01-13T05:52:34.344Z,10.97
2018-01-13T05:55:02.723Z,11.00
2018-01-13T05:57:31.110Z,11.50
2018-01-13T06:00:01.412Z,11.40
2018-01-13T06:02:28.999Z,13.40
2018-01-13T06:04:56.548Z,13.27
2018-01-13T06:07:25.875Z,13.10
2018-01-13T06:09:54.134Z,11.17
2018-01-13T06:12:22.489Z,10.70
2018-01-13T06:14:50.946Z,12.30
2018-01-13T06:17:19.693Z,11.97
2018-01-13T06:19:50.183Z,11.27
2018-01-13T06:22:21.046Z,13.70
2018-01-13T06:24:49.676Z,11.37
2018-01-13T06:27:19.064Z,12.60
2018-01-13T06:29:53.412Z,12.40
2018-01-13T06:32:22.597Z,13.90
2018-01-13T06:34:50.206Z,12.60
2018-01-13T06:37:20.731Z,13.10
2018-01-13T06:39:48.747Z,12.60
2018-01-13T06:42:17.183Z,12.50
2018-01-13T06:44:47.407Z,12.50
2018-01-13T06:47:16.956Z,12.30
2018-01-13T06:49:45.286Z,13.00
2018-01-13T06:52:14.242Z,12.93
2018-01-13T06:54:42.680Z,13.27
2018-01-13T06:57:13.468Z,12.40
2018-01-13T06:59:40.998Z,13.67
2018-01-13T07:02:08.620Z,11.90
2018-01-13T07:04:37.563Z,11.70
2018-01-13T07:07:06.295Z,12.00
2018-01-13T07:09:37.775Z,12.73
2018-01-13T07:12:13.920Z,12.07
2018-01-13T07:14:44.896Z,13.23
2018-01-13T07:17:13.235Z,12.43
2018-01-13T07:19:41.887Z,13.50
2018-01-13T07:22:12.345Z,13.50
2018-01-13T07:24:40.776Z,14.70
2018-01-13T07:27:10.818Z,16.37
2018-01-13T07:29:38.986Z,12.67
2018-01-13T07:32:07.561Z,12.70
2018-01-13T07:34:37.975Z,13.37
2018-01-13T07:37:08.716Z,14.00
2018-01-13T07:39:36.261Z,16.87
2018-01-13T07:42:03.844Z,14.03
2018-01-13T07:44:31.409Z,11.70
2018-01-13T07:46:59.819Z,13.80
2018-01-13T07:49:30.231Z,11.90
2018-01-13T07:51:58.414Z,11.00
2018-01-13T07:54:25.947Z,11.43
2018-01-13T07:56:54.292Z,12.87
2018-01-13T07:59:22.536Z,12.80
2018-01-13T08:01:51.060Z,12.00
2018-01-13T08:04:18.613Z,11.70
2018-01-13T08:06:46.193Z,11.17
2018-01-13T08:09:15.080Z,10.97
2018-01-13T08:11:43.995Z,10.80
2018-01-13T08:14:11.535Z,11.40
2018-01-13T08:16:40.412Z,11.17
2018-01-13T08:19:08.820Z,10.30
2018-01-13T08:21:37.095Z,11.20
2018-01-13T08:24:04.628Z,11.50
2018-01-13T08:26:33.110Z,11.07
2018-01-13T08:29:02.158Z,9.80
2018-01-13T08:31:29.737Z,10.50
2018-01-13T08:33:59.948Z,9.30
2018-01-13T08:36:28.374Z,11.57
2018-01-13T08:38:55.905Z,12.00
2018-01-13T08:41:24.222Z,11.20
2018-01-13T08:43:51.754Z,10.23
2018-01-13T08:46:21.041Z,10.53
2018-01-13T08:48:49.319Z,11.67
2018-01-13T08:51:16.895Z,11.40
2018-01-13T08:53:46.175Z,9.70
2018-01-13T08:56:13.810Z,10.80
2018-01-13T08:58:44.631Z,11.27
2018-01-13T09:01:13.386Z,11.63
2018-01-13T09:03:43.820Z,11.60
2018-01-13T09:06:13.901Z,12.90
2018-01-13T09:08:45.419Z,13.30
2018-01-13T09:11:13.304Z,12.30
2018-01-13T09:13:41.562Z,11.70
2018-01-13T09:16:10.247Z,11.63
2018-01-13T09:18:39.613Z,10.70
2018-01-13T09:21:07.414Z,13.27
2018-01-13T09:23:35.389Z,12.47
2018-01-13T09:26:03.057Z,11.30
2018-01-13T09:28:30.605Z,11.73
2018-01-13T09:30:58.200Z,12.10
2018-01-13T09:33:25.760Z,12.37
2018-01-13T09:35:56.572Z,10.80
2018-01-13T09:38:24.246Z,11.50
2018-01-13T09:40:53.430Z,11.50
2018-01-13T09:43:20.985Z,11.00
2018-01-13T09:45:48.590Z,11.73
2018-01-13T09:48:17.037Z,10.50
2018-01-13T09:50:45.182Z,10.67
2018-01-13T09:53:12.719Z,11.73
2018-01-13T09:55:41.336Z,10.70
2018-01-13T09:58:10.652Z,11.50
2018-01-13T10:00:38.226Z,11.13
2018-01-13T10:03:05.768Z,11.87
2018-01-13T10:05:33.406Z,11.33
2018-01-13T10:08:01.777Z,10.33
2018-01-13T10:10:29.425Z,11.07
2018-01-13T10:12:56.959Z,10.63
2018-01-13T10:15:24.547Z,10.90
2018-01-13T10:17:53.628Z,10.97
2018-01-13T10:20:21.200Z,11.33
2018-01-13T10:22:50.266Z,10.97
2018-01-13T10:25:17.852Z,10.63
2018-01-13T10:27:45.825Z,10.87
2018-01-13T10:30:13.411Z,10.47
2018-01-13T10:32:42.024Z,9.77
2018-01-13T10:35:10.313Z,9.53
2018-01-13T10:37:38.397Z,9.70
2018-01-13T10:40:06.032Z,9.90
2018-01-13T10:42:33.571Z,10.10
2018-01-13T10:45:02.742Z,10.83
2018-01-13T10:47:31.656Z,10.47
2018-01-13T10:50:00.106Z,9.73
2018-01-13T10:52:28.207Z,10.37
2018-01-13T10:54:55.775Z,8.93
2018-01-13T10:57:27.918Z,10.30
2018-01-13T10:59:56.270Z,10.57
2018-01-13T11:02:25.954Z,10.50
2018-01-13T11:04:54.593Z,9.93
2018-01-13T11:07:23.408Z,10.70
2018-01-13T11:09:51.669Z,9.40
2018-01-13T11:12:19.246Z,9.20
2018-01-13T11:14:48.194Z,9.63
2018-01-13T11:17:16.394Z,8.70
2018-01-13T11:19:44.797Z,9.57
2018-01-13T11:22:12.353Z,9.00
2018-01-13T11:24:42.179Z,9.57
2018-01-13T11:27:11.307Z,10.20
2018-01-13T11:29:38.923Z,8.90
2018-01-13T11:32:06.464Z,8.83
2018-01-13T11:34:34.035Z,8.87
2018-01-13T11:37:02.255Z,8.20
2018-01-13T11:39:30.686Z,8.40
2018-01-13T11:41:58.237Z,9.40
2018-01-13T11:44:26.764Z,9.27
2018-01-13T11:46:54.347Z,10.23
2018-01-13T11:49:23.502Z,9.20
2018-01-13T11:51:51.994Z,9.10
2018-01-13T11:54:20.986Z,9.87
2018-01-13T11:56:48.531Z,9.50
2018-01-13T11:59:16.576Z,9.03
2018-01-13T12:01:44.109Z,8.40
2018-01-13T12:04:11.643Z,9.30
2018-01-13T12:06:39.984Z,7.67
2018-01-13T12:09:07.514Z,8.23
2018-01-13T12:11:36.831Z,8.80
2018-01-13T12:14:05.138Z,9.03
2018-01-13T12:16:33.478Z,9.50
2018-01-13T12:19:01.578Z,8.77
2018-01-13T12:21:29.597Z,8.83
2018-01-13T12:23:57.547Z,8.10
2018-01-13T12:26:25.926Z,9.10
2018-01-13T12:28:54.150Z,8.43
2018-01-13T12:31:22.448Z,8.57
2018-01-13T12:33:50.833Z,9.23
2018-01-13T12:36:19.601Z,9.47
2018-01-13T12:38:47.127Z,9.00
2018-01-13T12:41:15.454Z,9.10
2018-01-13T12:43:43.519Z,8.93
2018-01-13T12:46:11.916Z,8.30
2018-01-13T12:48:40.244Z,9.17
2018-01-13T12:51:08.583Z,9.37
2018-01-13T12:53:36.949Z,9.57
2018-01-13T12:56:05.334Z,9.20
2018-01-13T12:58:34.183Z,7.80
2018-01-13T13:01:02.571Z,11.70
2018-01-13T13:03:30.102Z,8.70
2018-01-13T13:05:57.980Z,7.77
2018-01-13T13:08:26.379Z,7.70
2018-01-13T13:10:55.643Z,7.93
2018-01-13T13:13:23.854Z,8.23
2018-01-13T13:15:52.275Z,7.60
2018-01-13T13:18:21.338Z,7.30
2018-01-13T13:20:48.919Z,8.40
2018-01-13T13:23:16.464Z,9.00
2018-01-13T13:25:44.983Z,7.23
2018-01-13T13:28:13.423Z,7.87
2018-01-13T13:30:41.932Z,7.60
2018-01-13T13:33:10.006Z,8.50
2018-01-13T13:35:37.584Z,8.43
2018-01-13T13:38:05.169Z,8.40
2018-01-13T13:40:32.769Z,7.83
2018-01-13T13:43:00.909Z,9.30
2018-01-13T13:45:28.488Z,12.07
2018-01-13T13:47:56.969Z,9.00
2018-01-13T13:50:25.360Z,7.60
2018-01-13T13:52:52.899Z,8.57
2018-01-13T13:55:22.796Z,7.80
2018-01-13T13:57:50.466Z,8.03
2018-01-13T14:00:18.039Z,7.47
2018-01-13T14:02:46.373Z,7.27
2018-01-13T14:05:14.851Z,7.80
2018-01-13T14:07:44.064Z,8.53
2018-01-13T14:10:12.347Z,9.37
2018-01-13T14:12:39.883Z,8.57
2018-01-13T14:15:08.401Z,8.73
2018-01-13T14:17:35.923Z,7.83
2018-01-13T14:20:05.461Z,7.73
2018-01-13T14:22:34.766Z,7.47
2018-01-13T14:25:03.130Z,9.60
2018-01-13T14:27:33.336Z,7.50
2018-01-13T14:30:03.773Z,8.80
2018-01-13T14:32:32.094Z,8.53
2018-01-13T14:34:59.695Z,9.67
2018-01-13T14:37:28.975Z,8.63
2018-01-13T14:39:57.497Z,8.30
2018-01-13T14:42:27.310Z,8.17
2018-01-13T14:44:54.889Z,10.07
2018-01-13T14:47:22.425Z,10.70
2018-01-13T14:49:50.035Z,8.33
2018-01-13T14:52:17.737Z,8.73
2018-01-13T14:54:46.162Z,8.90
2018-01-13T14:57:13.694Z,8.60
2018-01-13T14:59:42.034Z,7.80
2018-01-13T15:02:11.134Z,8.40
2018-01-13T15:04:39.267Z,8.50
2018-01-13T15:07:06.996Z,10.30
2018-01-13T15:09:36.359Z,8.23
2018-01-13T15:12:04.703Z,9.27
2018-01-13T15:14:33.457Z,8.67
2018-01-13T15:17:02.538Z,8.03
2018-01-13T15:19:31.986Z,8.67
2018-01-13T15:22:01.243Z,9.83
2018-01-13T15:24:28.907Z,8.87
2018-01-13T15:26:57.259Z,8.60
2018-01-13T15:29:25.624Z,9.07
2018-01-13T15:31:53.950Z,8.93
2018-01-13T15:34:22.758Z,8.30
2018-01-13T15:36:51.073Z,8.33
2018-01-13T15:39:19.113Z,8.57
2018-01-13T15:41:47.054Z,10.13
2018-01-13T15:44:15.214Z,9.50
2018-01-13T15:46:43.370Z,10.03
2018-01-13T15:49:10.902Z,10.60
2018-01-13T15:51:38.528Z,9.10
2018-01-13T15:54:07.716Z,9.00
2018-01-13T15:56:36.010Z,9.70
2018-01-13T15:59:04.531Z,9.90
2018-01-13T16:01:35.581Z,12.50
2018-01-13T16:04:03.924Z,12.87
2018-01-13T16:06:31.476Z,12.47
2018-01-13T16:09:01.695Z,11.97
2018-01-13T16:11:29.944Z,11.70
2018-01-13T16:13:57.520Z,11.23
2018-01-13T16:16:25.978Z,12.30
2018-01-13T16:18:54.521Z,10.80
2018-01-13T16:21:22.156Z,12.17
2018-01-13T16:23:49.711Z,13.57
2018-01-13T16:26:17.337Z,10.23
2018-01-13T16:28:44.912Z,13.10
2018-01-13T16:31:12.510Z,17.80
2018-01-13T16:33:41.278Z,21.97
2018-01-13T16:36:08.867Z,14.07
2018-01-13T16:38:36.934Z,14.10
2018-01-13T16:41:04.528Z,12.07
2018-01-13T16:43:32.072Z,13.40
2018-01-13T16:46:00.198Z,20.77
2018-01-13T16:48:28.501Z,20.00
2018-01-13T16:50:57.471Z,20.20
2018-01-13T16:53:26.298Z,16.30
2018-01-13T16:55:55.795Z,17.33
2018-01-13T16:58:25.081Z,15.63
2018-01-13T17:00:54.697Z,14.53
2018-01-13T17:03:22.836Z,15.00
2018-01-13T17:06:00.083Z,13.33
2018-01-13T17:08:28.821Z,14.43
2018-01-13T17:10:56.872Z,15.27
2018-01-13T17:13:24.398Z,13.73
2018-01-13T17:15:53.665Z,15.43
2018-01-13T17:18:22.061Z,15.80
2018-01-13T17:20:49.637Z,14.53
2018-01-13T17:23:17.168Z,16.67
2018-01-13T17:25:45.485Z,18.50
2018-01-13T17:28:13.023Z,17.10
2018-01-13T17:30:41.372Z,16.40
2018-01-13T17:33:09.758Z,17.00
2018-01-13T17:35:37.342Z,15.60
2018-01-13T17:38:05.906Z,18.17
2018-01-13T17:40:33.546Z,16.10
2018-01-13T17:43:02.762Z,15.63
2018-01-13T17:45:31.170Z,15.30
2018-01-13T17:47:58.711Z,15.97
2018-01-13T17:50:27.378Z,16.20
2018-01-13T17:52:54.909Z,17.37
2018-01-13T17:55:22.470Z,16.97
2018-01-13T17:57:51.964Z,20.53
2018-01-13T18:00:21.339Z,22.63
2018-01-13T18:02:49.698Z,16.70
2018-01-13T18:05:18.088Z,16.83
2018-01-13T18:07:47.093Z,16.17
2018-01-13T18:10:15.433Z,14.87
2018-01-13T18:12:44.128Z,14.53
2018-01-13T18:15:13.377Z,12.80
2018-01-13T18:17:41.605Z,16.73
2018-01-13T18:20:09.178Z,15.67
2018-01-13T18:22:36.734Z,16.13
2018-01-13T18:25:05.133Z,16.40
2018-01-13T18:27:32.716Z,16.37
2018-01-13T18:30:03.144Z,14.13
2018-01-13T18:32:30.745Z,14.80
2018-01-13T18:34:59.304Z,17.43
2018-01-13T18:37:28.633Z,14.87
2018-01-13T18:39:57.248Z,14.10
2018-01-13T18:42:24.981Z,14.50
2018-01-13T18:44:53.319Z,14.70
2018-01-13T18:47:23.424Z,13.87
2018-01-13T18:49:51.898Z,14.00
2018-01-13T18:52:28.909Z,12.90
2018-01-13T18:55:02.211Z,12.70
2018-01-13T18:57:32.211Z,13.90
2018-01-13T18:59:59.848Z,15.53
2018-01-13T19:02:27.430Z,14.20
2018-01-13T19:04:55.061Z,15.23
2018-01-13T19:07:23.396Z,14.97
2018-01-13T19:09:51.012Z,16.20
2018-01-13T19:12:19.824Z,15.43
2018-01-13T19:14:48.501Z,14.93
2018-01-13T19:17:16.059Z,17.17
2018-01-13T19:19:43.654Z,16.30
2018-01-13T19:22:11.214Z,14.50
2018-01-13T19:24:40.358Z,13.83
2018-01-13T19:27:08.221Z,12.37
2018-01-13T19:29:37.394Z,12.30
2018-01-13T19:32:06.082Z,13.33
2018-01-13T19:34:33.688Z,14.60
2018-01-13T19:37:02.448Z,12.87
2018-01-13T19:39:33.294Z,12.60
2018-01-13T19:42:01.804Z,13.83
2018-01-13T19:44:29.435Z,13.37
2018-01-13T19:46:58.202Z,14.30
2018-01-13T19:49:25.832Z,15.33
2018-01-13T19:51:54.296Z,15.10
2018-01-13T19:54:21.941Z,14.33
2018-01-13T19:56:50.099Z,14.03
2018-01-13T19:59:18.450Z,14.10
2018-01-13T20:01:46.595Z,13.90
2018-01-13T20:04:14.941Z,14.50
2018-01-13T20:06:44.339Z,13.60
2018-01-13T20:09:13.855Z,14.03
2018-01-13T20:11:41.469Z,14.33
2018-01-13T20:14:11.667Z,13.53
2018-01-13T20:16:40.054Z,14.37
2018-01-13T20:19:07.677Z,14.50
2018-01-13T20:21:38.692Z,13.77
2018-01-13T20:24:07.126Z,17.40
2018-01-13T20:26:35.895Z,18.30
2018-01-13T20:29:04.937Z,14.90
2018-01-13T20:31:33.313Z,13.57
2018-01-13T20:34:01.987Z,14.80
2018-01-13T20:36:30.175Z,14.33
2018-01-13T20:38:57.789Z,15.23
2018-01-13T20:41:26.849Z,13.17
2018-01-13T20:43:57.120Z,12.43
2018-01-13T20:46:25.481Z,14.97
2018-01-13T20:48:53.110Z,12.87
2018-01-13T20:51:21.655Z,13.80
2018-01-13T20:53:50.108Z,14.23
2018-01-13T20:56:17.696Z,11.70
2018-01-13T20:58:46.674Z,12.60
2018-01-13T21:01:15.082Z,13.23
2018-01-13T21:03:44.409Z,12.87
2018-01-13T21:06:11.953Z,13.60
2018-01-13T21:08:41.038Z,13.13
2018-01-13T21:11:10.570Z,13.50
2018-01-13T21:13:39.653Z,12.00
2018-01-13T21:16:08.175Z,12.90
2018-01-13T21:18:37.961Z,14.37
2018-01-13T21:21:06.781Z,14.07
2018-01-13T21:23:34.363Z,15.17
2018-01-13T21:26:04.410Z,13.70
2018-01-13T21:28:34.775Z,14.27
2018-01-13T21:31:02.423Z,14.43
2018-01-13T21:33:31.281Z,14.47
2018-01-13T21:35:58.930Z,14.00
2018-01-13T21:38:27.405Z,15.90
2018-01-13T21:40:56.063Z,14.60
2018-01-13T21:43:23.636Z,13.97
2018-01-13T21:45:52.198Z,13.37
2018-01-13T21:48:20.522Z,14.40
2018-01-13T21:50:48.546Z,13.00
2018-01-13T21:53:17.086Z,14.50
2018-01-13T21:55:45.564Z,13.47
2018-01-13T21:58:13.145Z,13.10
2018-01-13T22:00:40.798Z,13.83
2018-01-13T22:03:08.401Z,15.93
2018-01-13T22:05:37.560Z,15.50
2018-01-13T22:08:06.713Z,14.23
2018-01-13T22:10:35.030Z,14.57
2018-01-13T22:13:02.625Z,14.50
2018-01-13T22:15:35.162Z,14.10
2018-01-13T22:18:03.699Z,14.37
2018-01-13T22:20:32.102Z,13.80
2018-01-13T22:23:00.484Z,13.60
2018-01-13T22:25:28.927Z,13.63
2018-01-13T22:27:57.370Z,12.50
2018-01-13T22:30:29.212Z,13.33
2018-01-13T22:33:01.504Z,12.10
2018-01-13T22:35:29.895Z,12.53
2018-01-13T22:37:58.216Z,13.77
2018-01-13T22:40:25.830Z,13.07
2018-01-13T22:42:54.121Z,14.03
2018-01-13T22:45:21.770Z,12.70
2018-01-13T22:47:50.102Z,13.40
2018-01-13T22:50:17.686Z,13.07
2018-01-13T22:52:46.920Z,13.40
2018-01-13T22:55:16.343Z,11.40
2018-01-13T22:57:43.962Z,12.43
2018-01-13T23:00:15.593Z,12.83
2018-01-13T23:02:43.131Z,12.60
2018-01-13T23:05:12.288Z,12.63
2018-01-13T23:07:42.177Z,14.37
2018-01-13T23:10:11.431Z,13.27
2018-01-13T23:12:39.773Z,13.70
2018-01-13T23:15:09.969Z,13.53
2018-01-13T23:17:37.558Z,12.93
2018-01-13T23:20:05.675Z,13.07
2018-01-13T23:22:34.382Z,12.07
2018-01-13T23:25:04.044Z,13.60
2018-01-13T23:27:32.351Z,12.90
2018-01-13T23:30:03.522Z,12.30
2018-01-13T23:32:31.050Z,12.67
2018-01-13T23:35:00.026Z,12.77
2018-01-13T23:37:27.582Z,14.53
2018-01-13T23:39:55.174Z,12.87
2018-01-13T23:42:24.062Z,12.10
2018-01-13T23:44:53.056Z,12.63
2018-01-13T23:47:21.485Z,12.97
2018-01-13T23:49:51.412Z,13.97
2018-01-13T23:52:21.678Z,12.20
2018-01-13T23:54:50.084Z,12.10
2018-01-13T23:57:18.919Z,12.63
2018-01-13T23:59:53.062Z,13.37
